Time,TemperatureF,DewpointF,PressureIn,WindDirection,WindDirectionDegrees,WindSpeedMPH,WindSpeedGustMPH,Humidity,HourlyPrecipIn,Conditions,Clouds,dailyrainin,SoftwareType,DateUTC
2013-02-12 00:00:00,48.1,42.5,29.95,SE,128,9.0,13.0,81,0.00,,,0.03,Wunderground v.1.15,2013-02-12 06:00:00,
2013-02-12 00:10:00,48.0,42.8,29.97,SE,136,9.0,10.0,82,0.00,,,0.00,Wunderground v.1.15,2013-02-12 06:10:00,
2013-02-12 00:20:00,47.6,43.3,29.95,ESE,122,12.0,12.0,85,0.00,,,0.00,Wunderground v.1.15,2013-02-12 06:20:00,
2013-02-12 00:30:00,47.0,43.3,29.95,SE,130,12.0,13.0,87,0.00,,,0.00,Wunderground v.1.15,2013-02-12 06:30:00,
2013-02-12 00:40:00,46.7,43.6,29.95,SE,131,10.0,10.0,89,0.00,,,0.00,Wunderground v.1.15,2013-02-12 06:40:00,
2013-02-12 00:50:00,46.4,43.6,29.96,SE,142,9.0,9.0,90,0.00,,,0.00,Wunderground v.1.15,2013-02-12 06:50:00,
2013-02-12 01:00:00,46.3,44.1,29.94,ESE,118,8.0,8.0,92,0.00,,,0.00,Wunderground v.1.15,2013-02-12 07:00:00,
2013-02-12 01:10:00,46.2,44.0,29.93,East,101,7.0,8.0,92,0.00,,,0.00,Wunderground v.1.15,2013-02-12 07:10:00,
2013-02-12 01:20:00,46.2,44.3,29.95,SE,138,6.0,8.0,93,0.00,,,0.00,Wunderground v.1.15,2013-02-12 07:20:00,
2013-02-12 01:30:00,46.2,44.3,29.95,SE,127,6.0,6.0,93,0.00,,,0.00,Wunderground v.1.15,2013-02-12 07:30:00,
2013-02-12 01:40:00,46.3,44.4,29.94,SE,127,4.0,5.0,93,0.00,,,0.00,Wunderground v.1.15,2013-02-12 07:40:00,
2013-02-12 01:50:00,46.3,44.4,29.92,ESE,102,5.0,6.0,93,0.00,,,0.00,Wunderground v.1.15,2013-02-12 07:50:00,
2013-02-12 02:00:00,46.4,44.8,29.92,ESE,104,5.0,7.0,94,0.00,,,0.00,Wunderground v.1.15,2013-02-12 08:00:00,
2013-02-12 02:10:00,46.5,44.9,29.91,ESE,113,6.0,8.0,94,0.00,,,0.00,Wunderground v.1.15,2013-02-12 08:10:00,
2013-02-12 02:20:00,46.5,44.9,29.91,ESE,119,6.0,9.0,94,0.00,,,0.00,Wunderground v.1.15,2013-02-12 08:20:00,
2013-02-12 02:30:00,46.6,45.0,29.91,ESE,108,6.0,6.0,94,0.00,,,0.00,Wunderground v.1.15,2013-02-12 08:30:00,
2013-02-12 02:40:00,46.7,45.1,29.90,East,101,4.0,6.0,94,0.00,,,0.00,Wunderground v.1.15,2013-02-12 08:40:00,
2013-02-12 02:50:00,46.7,45.1,29.89,ESE,123,6.0,6.0,94,0.00,,,0.00,Wunderground v.1.15,2013-02-12 08:50:00,
2013-02-12 03:00:00,46.7,45.1,29.88,ESE,117,7.0,7.0,94,0.00,,,0.00,Wunderground v.1.15,2013-02-12 09:00:00,
2013-02-12 03:10:00,46.8,45.2,29.87,East,87,8.0,8.0,94,0.00,,,0.00,Wunderground v.1.15,2013-02-12 09:10:00,
2013-02-12 03:20:00,46.9,45.3,29.88,ESE,120,6.0,6.0,94,0.00,,,0.00,Wunderground v.1.15,2013-02-12 09:20:00,
2013-02-12 03:30:00,46.9,45.3,29.88,SE,130,6.0,6.0,94,0.00,,,0.00,Wunderground v.1.15,2013-02-12 09:30:00,
2013-02-12 03:40:00,46.8,45.2,29.88,SSE,150,8.0,8.0,94,0.00,,,0.00,Wunderground v.1.15,2013-02-12 09:40:00,
2013-02-12 03:50:00,46.8,45.4,29.86,East,90,7.0,8.0,95,0.00,,,0.00,Wunderground v.1.15,2013-02-12 09:50:00,
2013-02-12 04:00:00,46.9,45.5,29.87,East,95,7.0,7.0,95,0.00,,,0.00,Wunderground v.1.15,2013-02-12 10:00:00,
2013-02-12 04:10:00,46.9,45.5,29.87,ESE,103,4.0,4.0,95,0.00,,,0.00,Wunderground v.1.15,2013-02-12 10:10:00,
2013-02-12 04:20:00,46.9,45.5,29.87,East,96,5.0,6.0,95,0.00,,,0.00,Wunderground v.1.15,2013-02-12 10:20:00,
2013-02-12 04:30:00,46.9,45.5,29.86,ESE,106,6.0,7.0,95,0.00,,,0.00,Wunderground v.1.15,2013-02-12 10:30:00,
2013-02-12 04:40:00,46.9,45.5,29.86,ESE,111,7.0,8.0,95,0.00,,,0.00,Wunderground v.1.15,2013-02-12 10:40:00,
2013-02-12 04:50:00,46.9,45.5,29.85,ESE,116,7.0,7.0,95,0.00,,,0.00,Wunderground v.1.15,2013-02-12 10:50:00,
2013-02-12 05:00:00,46.9,45.5,29.85,SE,132,7.0,8.0,95,0.00,,,0.00,Wunderground v.1.15,2013-02-12 11:00:00,
2013-02-12 05:10:00,46.9,45.5,29.86,South,169,6.0,7.0,95,0.00,,,0.00,Wunderground v.1.15,2013-02-12 11:10:00,
2013-02-12 05:20:00,46.9,45.5,29.86,SSE,153,6.0,6.0,95,0.00,,,0.00,Wunderground v.1.15,2013-02-12 11:20:00,
2013-02-12 05:30:00,46.9,45.8,29.86,SSE,153,0.0,3.0,96,0.00,,,0.00,Wunderground v.1.15,2013-02-12 11:30:00,
2013-02-12 05:40:00,47.0,45.9,29.85,SSE,153,0.0,3.0,96,0.00,,,0.00,Wunderground v.1.15,2013-02-12 11:40:00,
2013-02-12 05:50:00,47.0,45.9,29.85,SSE,153,0.0,3.0,96,0.00,,,0.00,Wunderground v.1.15,2013-02-12 11:50:00,
2013-02-12 06:00:00,47.0,45.9,29.84,SSE,153,0.0,3.0,96,0.00,,,0.00,Wunderground v.1.15,2013-02-12 12:00:00,
2013-02-12 06:10:00,47.0,45.9,29.85,SSE,153,0.0,3.0,96,0.00,,,0.00,Wunderground v.1.15,2013-02-12 12:10:00,
2013-02-12 06:20:00,47.1,46.0,29.85,SSE,154,0.0,3.0,96,0.00,,,0.00,Wunderground v.1.15,2013-02-12 12:20:00,
2013-02-12 06:30:00,47.1,46.0,29.86,SSE,154,0.0,3.0,96,0.00,,,0.00,Wunderground v.1.15,2013-02-12 12:30:00,
2013-02-12 06:40:00,47.2,46.1,29.87,SSE,154,0.0,3.0,96,0.00,,,0.00,Wunderground v.1.15,2013-02-12 12:40:00,
2013-02-12 06:50:00,47.2,46.1,29.87,SSE,154,0.0,3.0,96,0.00,,,0.00,Wunderground v.1.15,2013-02-12 12:50:00,
2013-02-12 07:00:00,47.2,46.1,29.88,SSE,154,0.0,3.0,96,0.00,,,0.00,Wunderground v.1.15,2013-02-12 13:00:00,
2013-02-12 07:10:00,47.3,46.2,29.87,SSE,154,0.0,3.0,96,0.00,,,0.00,Wunderground v.1.15,2013-02-12 13:10:00,
2013-02-12 07:20:00,47.3,46.2,29.88,SSE,154,0.0,3.0,96,0.00,,,0.01,Wunderground v.1.15,2013-02-12 13:20:00,
2013-02-12 07:30:00,47.4,46.3,29.89,SSE,154,0.0,3.0,96,0.00,,,0.01,Wunderground v.1.15,2013-02-12 13:30:00,
2013-02-12 07:40:00,47.5,46.4,29.89,SSE,154,0.0,3.0,96,0.00,,,0.01,Wunderground v.1.15,2013-02-12 13:40:00,
2013-02-12 07:50:00,47.5,46.4,29.88,SSE,155,0.0,3.0,96,0.00,,,0.01,Wunderground v.1.15,2013-02-12 13:50:00,
2013-02-12 08:00:00,47.6,46.5,29.89,SSE,154,0.0,3.0,96,0.00,,,0.01,Wunderground v.1.15,2013-02-12 14:00:00,
2013-02-12 08:10:00,47.7,46.9,29.90,SSE,154,0.0,3.0,97,0.00,,,0.01,Wunderground v.1.15,2013-02-12 14:10:00,
2013-02-12 08:20:00,47.8,47.0,29.90,SSE,155,0.0,3.0,97,0.00,,,0.01,Wunderground v.1.15,2013-02-12 14:20:00,
2013-02-12 08:30:00,47.9,47.1,29.90,SSE,155,0.0,3.0,97,0.00,,,0.01,Wunderground v.1.15,2013-02-12 14:30:00,
2013-02-12 08:40:00,48.0,46.9,29.90,SSE,155,0.0,3.0,96,0.00,,,0.01,Wunderground v.1.15,2013-02-12 14:40:00,
2013-02-12 08:50:00,48.1,47.0,29.90,SSE,155,0.0,3.0,96,0.00,,,0.01,Wunderground v.1.15,2013-02-12 14:50:00,
2013-02-12 09:00:00,48.1,47.0,29.90,SSE,155,0.0,3.0,96,0.00,,,0.01,Wunderground v.1.15,2013-02-12 15:00:00,
2013-02-12 09:10:00,48.2,48.2,29.91,SSE,155,0.0,3.0,100,0.00,,,0.01,Wunderground v.1.15,2013-02-12 15:10:00,
2013-02-12 09:20:00,48.4,47.6,29.91,SSE,155,0.0,3.0,97,0.00,,,0.01,Wunderground v.1.15,2013-02-12 15:20:00,
2013-02-12 09:30:00,48.6,47.8,29.91,SSE,155,0.0,3.0,97,0.00,,,0.01,Wunderground v.1.15,2013-02-12 15:30:00,
2013-02-12 09:40:00,48.8,48.0,29.92,SSE,162,0.0,3.0,97,0.00,,,0.01,Wunderground v.1.15,2013-02-12 15:40:00,
2013-02-12 09:50:00,49.0,48.2,29.92,SSE,162,0.0,3.0,97,0.00,,,0.01,Wunderground v.1.15,2013-02-12 15:50:00,
2013-02-12 10:00:00,49.4,48.6,29.91,SSE,162,0.0,3.0,97,0.00,,,0.01,Wunderground v.1.15,2013-02-12 16:00:00,
2013-02-12 10:10:00,50.1,49.3,29.91,SSE,162,0.0,3.0,97,0.00,,,0.01,Wunderground v.1.15,2013-02-12 16:10:00,
2013-02-12 10:20:00,50.8,50.0,29.91,SSE,162,0.0,3.0,97,0.00,,,0.01,Wunderground v.1.15,2013-02-12 16:20:00,
2013-02-12 10:30:00,51.5,50.4,29.91,WSW,256,0.0,3.0,96,0.00,,,0.01,Wunderground v.1.15,2013-02-12 16:30:00,
2013-02-12 10:40:00,52.2,50.5,29.91,WSW,254,1.0,3.0,94,0.00,,,0.01,Wunderground v.1.15,2013-02-12 16:40:00,
2013-02-12 10:50:00,52.9,50.6,29.92,WNW,297,1.0,1.0,92,0.00,,,0.01,Wunderground v.1.15,2013-02-12 16:50:00,
2013-02-12 11:00:00,53.2,50.3,29.92,NW,308,2.0,2.0,90,0.00,,,0.01,Wunderground v.1.15,2013-02-12 17:00:00,
2013-02-12 11:10:00,53.5,50.0,29.92,NW,311,1.0,1.0,88,0.00,,,0.01,Wunderground v.1.15,2013-02-12 17:10:00,
2013-02-12 11:20:00,53.7,50.2,29.92,WNW,283,1.0,1.0,88,0.00,,,0.01,Wunderground v.1.15,2013-02-12 17:20:00,
2013-02-12 11:30:00,54.0,50.2,29.92,WNW,287,2.0,4.0,87,0.00,,,0.01,Wunderground v.1.15,2013-02-12 17:30:00,
2013-02-12 11:40:00,54.5,50.1,29.92,WNW,294,3.0,3.0,85,0.00,,,0.01,Wunderground v.1.15,2013-02-12 17:40:00,
2013-02-12 11:50:00,55.0,50.3,29.91,NW,306,5.0,6.0,84,0.00,,,0.01,Wunderground v.1.15,2013-02-12 17:50:00,
2013-02-12 12:00:00,56.1,50.0,29.91,WNW,287,6.0,6.0,80,0.00,,,0.01,Wunderground v.1.15,2013-02-12 18:00:00,
2013-02-12 12:10:00,56.7,49.9,29.90,NW,313,4.0,8.0,78,0.00,,,0.01,Wunderground v.1.15,2013-02-12 18:10:00,
2013-02-12 12:20:00,57.3,49.4,29.89,WNW,286,4.0,5.0,75,0.00,,,0.01,Wunderground v.1.15,2013-02-12 18:20:00,
2013-02-12 12:30:00,58.1,49.9,29.88,NW,310,3.0,3.0,74,0.00,,,0.01,Wunderground v.1.15,2013-02-12 18:30:00,
2013-02-12 12:40:00,58.2,48.8,29.88,West,271,4.0,4.0,71,0.00,,,0.01,Wunderground v.1.15,2013-02-12 18:40:00,
2013-02-12 12:50:00,58.8,48.6,29.87,NW,321,3.0,6.0,69,0.00,,,0.01,Wunderground v.1.15,2013-02-12 18:50:00,
2013-02-12 13:00:00,59.5,48.1,29.86,WNW,286,3.0,3.0,66,0.00,,,0.01,Wunderground v.1.15,2013-02-12 19:00:00,
2013-02-12 13:10:00,60.2,48.8,29.86,West,280,2.0,2.0,66,0.00,,,0.01,Wunderground v.1.15,2013-02-12 19:10:00,
2013-02-12 13:20:00,60.7,47.6,29.86,West,264,4.0,4.0,62,0.00,,,0.01,Wunderground v.1.15,2013-02-12 19:20:00,
2013-02-12 13:30:00,61.6,45.7,29.85,West,276,2.0,8.0,56,0.00,,,0.01,Wunderground v.1.15,2013-02-12 19:30:00,
2013-02-12 13:40:00,62.3,47.3,29.84,WNW,282,5.0,5.0,58,0.00,,,0.01,Wunderground v.1.15,2013-02-12 19:40:00,
2013-02-12 13:50:00,63.1,47.1,29.83,NW,319,2.0,5.0,56,0.00,,,0.01,Wunderground v.1.15,2013-02-12 19:50:00,
2013-02-12 14:00:00,64.0,47.0,29.83,West,270,2.0,3.0,54,0.00,,,0.01,Wunderground v.1.15,2013-02-12 20:00:00,
2013-02-12 14:10:00,64.4,46.4,29.82,WNW,300,2.0,2.0,52,0.00,,,0.01,Wunderground v.1.15,2013-02-12 20:10:00,
2013-02-12 14:20:00,64.5,44.9,29.81,WNW,300,5.0,5.0,49,0.00,,,0.01,Wunderground v.1.15,2013-02-12 20:20:00,
2013-02-12 14:30:00,65.3,44.5,29.81,WNW,296,3.0,4.0,47,0.00,,,0.01,Wunderground v.1.15,2013-02-12 20:30:00,
2013-02-12 14:40:00,66.5,43.9,29.80,West,276,3.0,3.0,44,0.00,,,0.01,Wunderground v.1.15,2013-02-12 20:40:00,
2013-02-12 14:50:00,67.6,32.4,29.81,WSW,257,5.0,18.0,27,0.00,,,0.01,Wunderground v.1.15,2013-02-12 20:50:00,
2013-02-12 15:00:00,67.2,28.1,29.81,WSW,257,7.0,7.0,23,0.00,,,0.01,Wunderground v.1.15,2013-02-12 21:00:00,
2013-02-12 15:10:00,66.9,28.9,29.81,West,267,9.0,17.0,24,0.00,,,0.01,Wunderground v.1.15,2013-02-12 21:10:00,
2013-02-12 15:20:00,66.6,27.6,29.82,NW,311,9.0,13.0,23,0.00,,,0.01,Wunderground v.1.15,2013-02-12 21:20:00,
2013-02-12 15:30:00,66.6,26.5,29.81,WNW,297,9.0,11.0,22,0.00,,,0.01,Wunderground v.1.15,2013-02-12 21:30:00,
2013-02-12 15:40:00,66.1,27.2,29.81,NW,309,12.0,17.0,23,0.00,,,0.01,Wunderground v.1.15,2013-02-12 21:40:00,
2013-02-12 15:50:00,66.1,27.2,29.82,WNW,293,8.0,16.0,23,0.00,,,0.01,Wunderground v.1.15,2013-02-12 21:50:00,
2013-02-12 16:00:00,66.1,27.2,29.82,WSW,255,8.0,8.0,23,0.00,,,0.01,Wunderground v.1.15,2013-02-12 22:00:00,
2013-02-12 16:10:00,66.1,30.2,29.82,NNW,340,7.0,9.0,26,0.00,,,0.01,Wunderground v.1.15,2013-02-12 22:10:00,
2013-02-12 16:20:00,65.3,37.6,29.82,North,9,12.0,16.0,36,0.00,,,0.01,Wunderground v.1.15,2013-02-12 22:20:00,
2013-02-12 16:30:00,62.2,44.3,29.83,North,5,11.0,11.0,52,0.00,,,0.01,Wunderground v.1.15,2013-02-12 22:30:00,
2013-02-12 16:40:00,60.9,44.1,29.84,North,5,10.0,13.0,54,0.00,,,0.01,Wunderground v.1.15,2013-02-12 22:40:00,
2013-02-12 16:50:00,60.0,43.3,29.85,NNW,344,10.0,13.0,54,0.00,,,0.01,Wunderground v.1.15,2013-02-12 22:50:00,
2013-02-12 17:00:00,59.7,43.5,29.86,West,273,9.0,12.0,55,0.00,,,0.01,Wunderground v.1.15,2013-02-12 23:00:00,
2013-02-12 17:10:00,59.3,41.7,29.86,NNW,346,7.0,7.0,52,0.00,,,0.01,Wunderground v.1.15,2013-02-12 23:10:00,
2013-02-12 17:20:00,59.3,41.2,29.86,NNW,344,7.0,7.0,51,0.00,,,0.01,Wunderground v.1.15,2013-02-12 23:20:00,
2013-02-12 17:30:00,59.2,41.1,29.87,NNW,334,6.0,10.0,51,0.00,,,0.01,Wunderground v.1.15,2013-02-12 23:30:00,
2013-02-12 17:40:00,58.9,40.3,29.87,North,5,7.0,7.0,50,0.00,,,0.01,Wunderground v.1.15,2013-02-12 23:40:00,
2013-02-12 17:50:00,58.9,39.8,29.88,NNW,329,6.0,6.0,49,0.00,,,0.01,Wunderground v.1.15,2013-02-12 23:50:00,
2013-02-12 18:00:00,58.8,39.7,29.89,NW,314,4.0,5.0,49,0.00,,,0.01,Wunderground v.1.15,2013-02-13 00:00:00,
2013-02-12 18:10:00,58.2,41.6,29.90,NNW,342,7.0,14.0,54,0.00,,,0.01,Wunderground v.1.15,2013-02-13 00:10:00,
2013-02-12 18:20:00,56.6,42.4,29.91,NNW,330,10.0,10.0,59,0.00,,,0.01,Wunderground v.1.15,2013-02-13 00:20:00,
2013-02-12 18:30:00,55.6,42.4,29.92,NW,323,8.0,8.0,61,0.00,,,0.01,Wunderground v.1.15,2013-02-13 00:30:00,
2013-02-12 18:40:00,54.7,41.5,29.94,NNW,328,9.0,12.0,61,0.00,,,0.01,Wunderground v.1.15,2013-02-13 00:40:00,
2013-02-12 18:50:00,53.6,41.7,29.95,NNE,13,9.0,9.0,64,0.00,,,0.01,Wunderground v.1.15,2013-02-13 00:50:00,
2013-02-12 19:00:00,52.4,41.8,29.96,North,355,9.0,9.0,67,0.00,,,0.01,Wunderground v.1.15,2013-02-13 01:00:00,
2013-02-12 19:10:00,51.6,41.4,29.96,NNW,336,7.0,7.0,68,0.00,,,0.01,Wunderground v.1.15,2013-02-13 01:10:00,
2013-02-12 19:20:00,50.9,41.5,29.98,NNW,337,9.0,9.0,70,0.00,,,0.01,Wunderground v.1.15,2013-02-13 01:20:00,
2013-02-12 19:30:00,49.9,41.2,29.98,North,355,9.0,9.0,72,0.00,,,0.01,Wunderground v.1.15,2013-02-13 01:30:00,
2013-02-12 19:40:00,49.5,41.2,29.99,North,355,8.0,8.0,73,0.00,,,0.01,Wunderground v.1.15,2013-02-13 01:40:00,
2013-02-12 19:50:00,48.2,41.0,30.00,NNW,334,9.0,10.0,76,0.00,,,0.01,Wunderground v.1.15,2013-02-13 01:50:00,
2013-02-12 20:00:00,46.9,39.4,30.01,NW,324,8.0,8.0,75,0.00,,,0.01,Wunderground v.1.15,2013-02-13 02:00:00,
2013-02-12 20:10:00,46.3,39.1,30.01,WNW,299,6.0,6.0,76,0.00,,,0.01,Wunderground v.1.15,2013-02-13 02:10:00,
2013-02-12 20:20:00,45.8,38.7,30.02,WNW,295,6.0,6.0,76,0.00,,,0.01,Wunderground v.1.15,2013-02-13 02:20:00,
2013-02-12 20:30:00,45.3,38.5,30.03,WNW,292,7.0,14.0,77,0.00,,,0.01,Wunderground v.1.15,2013-02-13 02:30:00,
2013-02-12 20:40:00,44.8,38.0,30.02,NW,319,6.0,7.0,77,0.00,,,0.01,Wunderground v.1.15,2013-02-13 02:40:00,
2013-02-12 20:50:00,44.4,37.6,30.03,North,355,8.0,10.0,77,0.00,,,0.01,Wunderground v.1.15,2013-02-13 02:50:00,
2013-02-12 21:00:00,44.3,37.5,30.04,NNW,334,5.0,9.0,77,0.00,,,0.01,Wunderground v.1.15,2013-02-13 03:00:00,
2013-02-12 21:10:00,44.3,37.5,30.04,North,5,7.0,8.0,77,0.00,,,0.01,Wunderground v.1.15,2013-02-13 03:10:00,
2013-02-12 21:20:00,44.1,36.0,30.05,NW,316,8.0,10.0,73,0.00,,,0.01,Wunderground v.1.15,2013-02-13 03:20:00,
2013-02-12 21:30:00,43.2,34.4,30.06,WNW,288,10.0,10.0,71,0.00,,,0.01,Wunderground v.1.15,2013-02-13 03:30:00,
2013-02-12 21:40:00,42.8,34.0,30.07,NW,311,11.0,11.0,71,0.00,,,0.01,Wunderground v.1.15,2013-02-13 03:40:00,
2013-02-12 21:50:00,42.7,33.9,30.08,NNW,331,9.0,9.0,71,0.00,,,0.01,Wunderground v.1.15,2013-02-13 03:50:00,
2013-02-12 22:00:00,42.5,33.8,30.08,WNW,296,8.0,13.0,71,0.00,,,0.01,Wunderground v.1.15,2013-02-13 04:00:00,
2013-02-12 22:10:00,42.4,33.7,30.08,NW,320,8.0,8.0,71,0.00,,,0.01,Wunderground v.1.15,2013-02-13 04:10:00,
2013-02-12 22:20:00,42.4,33.7,30.09,NNW,346,8.0,8.0,71,0.00,,,0.01,Wunderground v.1.15,2013-02-13 04:20:00,
2013-02-12 22:30:00,42.4,33.7,30.09,North,355,9.0,9.0,71,0.00,,,0.01,Wunderground v.1.15,2013-02-13 04:30:00,
2013-02-12 22:40:00,42.2,33.8,30.10,NNW,334,8.0,8.0,72,0.00,,,0.01,Wunderground v.1.15,2013-02-13 04:40:00,
2013-02-12 22:50:00,41.8,33.4,30.09,NNW,331,9.0,9.0,72,0.00,,,0.01,Wunderground v.1.15,2013-02-13 04:50:00,
2013-02-12 23:00:00,41.3,33.0,30.09,North,5,10.0,10.0,72,0.00,,,0.01,Wunderground v.1.15,2013-02-13 05:00:00,
2013-02-12 23:10:00,40.9,32.9,30.10,NW,307,10.0,10.0,73,0.00,,,0.01,Wunderground v.1.15,2013-02-13 05:10:00,
2013-02-12 23:20:00,40.7,32.7,30.10,NW,315,7.0,13.0,73,0.00,,,0.01,Wunderground v.1.15,2013-02-13 05:20:00,
2013-02-12 23:30:00,40.4,32.8,30.09,NNW,340,8.0,8.0,74,0.00,,,0.01,Wunderground v.1.15,2013-02-13 05:30:00,
2013-02-12 23:40:00,40.1,32.8,30.10,NNW,335,5.0,5.0,75,0.00,,,0.01,Wunderground v.1.15,2013-02-13 05:40:00,
2013-02-12 23:50:00,39.9,32.9,30.10,NW,323,5.0,5.0,76,0.00,,,0.01,Wunderground v.1.15,2013-02-13 05:50:00,